Time;durP1;ratioP1;P1;durP2;ratioP2;P2;SDS_P1;SDS_P2;PMS_P1;PMS_P2;Temp;Humidity;BMP_temperature;BMP_pressure;BME280_temperature;BME280_humidity;BME280_pressure;Samples;Min_cycle;Max_cycle;Signal;HPM_P1;HPM_P2
2022/10/11 00:02:09;;;;;;;15.23;9.40;;;;;;;13.84;100.00;101147.41;5023109;28;20421;-85
2022/10/11 00:04:34;;;;;;;13.82;10.63;;;;;;;13.82;100.00;101146.75;5003950;28;20128;-85
2022/10/11 00:07:00;;;;;;;17.58;10.13;;;;;;;13.78;100.00;101146.22;5005604;28;20033;-85
2022/10/11 00:09:25;;;;;;;11.60;9.30;;;;;;;13.73;100.00;101148.47;5006651;28;20041;-85
2022/10/11 00:11:54;;;;;;;12.18;9.77;;;;;;;13.71;100.00;101144.34;5023184;28;20120;-86
2022/10/11 00:14:20;;;;;;;12.23;8.80;;;;;;;13.75;100.00;101130.81;5021467;28;20030;-85
2022/10/11 00:16:45;;;;;;;12.65;9.50;;;;;;;13.83;100.00;101135.31;5003780;28;20030;-84
2022/10/11 00:19:11;;;;;;;12.40;8.45;;;;;;;13.89;100.00;101143.38;5003107;28;20029;-84
2022/10/11 00:21:38;;;;;;;13.65;9.27;;;;;;;13.95;100.00;101141.97;5001171;28;20029;-84
2022/10/11 00:24:04;;;;;;;13.93;8.35;;;;;;;13.99;100.00;101148.56;5035328;28;20377;-85
2022/10/11 00:26:29;;;;;;;8.60;7.70;;;;;;;14.06;100.00;101148.78;5019846;28;20109;-85
2022/10/11 00:28:55;;;;;;;12.60;8.80;;;;;;;14.07;100.00;101146.00;5024141;28;20518;-85
2022/10/11 00:31:21;;;;;;;13.35;8.60;;;;;;;14.03;100.00;101147.28;5023440;28;20111;-84
2022/10/11 00:33:47;;;;;;;10.23;8.57;;;;;;;13.98;100.00;101144.28;5025233;28;20014;-85
2022/10/11 00:36:15;;;;;;;13.48;8.77;;;;;;;13.92;100.00;101139.66;5002681;28;20025;-86
2022/10/11 00:38:42;;;;;;;10.70;8.50;;;;;;;13.84;100.00;101139.56;5022222;28;20045;-84
2022/10/11 00:41:07;;;;;;;11.85;9.07;;;;;;;13.80;100.00;101132.97;5029385;28;20044;-85
2022/10/11 00:43:33;;;;;;;12.25;9.43;;;;;;;13.75;100.00;101130.81;5031904;28;20049;-85
2022/10/11 00:46:03;;;;;;;16.30;9.93;;;;;;;13.74;100.00;101126.53;5025291;28;20041;-84
2022/10/11 00:48:38;;;;;;;11.18;9.85;;;;;;;13.71;100.00;101124.22;5008835;28;20473;-84
2022/10/11 00:51:11;;;;;;;11.15;9.38;;;;;;;13.73;100.00;101121.44;4995882;28;20047;-85
2022/10/11 00:53:37;;;;;;;12.73;9.45;;;;;;;13.75;100.00;101119.50;5006097;28;20041;-85
2022/10/11 00:56:13;;;;;;;10.00;9.00;;;;;;;13.75;100.00;101114.25;5027260;28;20034;-85
2022/10/11 00:58:41;;;;;;;12.80;9.10;;;;;;;13.76;100.00;101115.91;5022399;28;20045;-84
2022/10/11 01:01:06;;;;;;;14.10;9.85;;;;;;;13.77;100.00;101117.56;5027628;28;20051;-83
2022/10/11 01:03:34;;;;;;;14.00;8.98;;;;;;;13.80;100.00;101120.69;5025812;28;20030;-84
2022/10/11 01:06:02;;;;;;;16.52;9.80;;;;;;;13.81;100.00;101118.91;5024496;28;20036;-84
2022/10/11 01:08:28;;;;;;;11.93;8.57;;;;;;;13.79;100.00;101119.06;5025816;28;20195;-85
2022/10/11 01:10:54;;;;;;;11.98;9.80;;;;;;;13.72;100.00;101130.28;5027929;28;20545;-84
2022/10/11 01:13:28;;;;;;;13.18;10.02;;;;;;;13.69;100.00;101126.19;5029712;28;20045;-84
2022/10/11 01:16:26;;;;;;;15.07;10.32;;;;;;;13.51;100.00;101118.31;5007543;28;20045;-84
2022/10/11 01:19:04;;;;;;;16.02;10.77;;;;;;;13.43;100.00;101115.59;5020208;28;20100;-85
2022/10/11 01:21:38;;;;;;;12.23;10.27;;;;;;;13.38;100.00;101112.59;5042330;28;20116;-84
2022/10/11 01:24:36;;;;;;;17.30;10.13;;;;;;;13.38;100.00;101109.16;5022087;28;20420;-85
2022/10/11 01:27:40;;;;;;;14.00;10.25;;;;;;;13.39;100.00;101111.63;5025691;28;20040;-84
2022/10/11 01:30:25;;;;;;;13.85;10.48;;;;;;;13.40;100.00;101109.81;5022717;28;20044;-85
2022/10/11 01:33:09;;;;;;;14.15;9.88;;;;;;;13.42;100.00;101105.28;5025438;28;20101;-85
2022/10/11 01:35:45;;;;;;;13.60;10.40;;;;;;;13.41;100.00;101109.69;5024407;28;20053;-84
2022/10/11 01:38:41;;;;;;;12.68;10.00;;;;;;;13.43;100.00;101107.75;5020766;28;20033;-85
2022/10/11 01:41:16;;;;;;;16.48;10.88;;;;;;;13.40;100.00;101102.78;5021052;28;20425;-85
2022/10/11 01:43:43;;;;;;;15.52;11.13;;;;;;;13.37;100.00;101099.66;5004650;28;20128;-85
2022/10/11 01:46:09;;;;;;;15.15;9.85;;;;;;;13.32;100.00;101102.69;5022789;28;20222;-86
2022/10/11 01:48:53;;;;;;;13.02;10.25;;;;;;;13.31;100.00;101101.06;5006103;28;20032;-85
2022/10/11 01:51:23;;;;;;;16.02;10.18;;;;;;;13.29;100.00;101097.75;5004845;28;20029;-85
2022/10/11 01:54:10;;;;;;;12.55;10.90;;;;;;;13.23;100.00;101101.78;5018594;28;20196;-84
2022/10/11 01:56:51;;;;;;;15.55;11.23;;;;;;;13.19;100.00;101097.03;5021718;28;20032;-84
2022/10/11 01:59:53;;;;;;;14.90;10.43;;;;;;;13.18;100.00;101098.00;5004427;28;20481;-85
2022/10/11 02:02:53;;;;;;;13.05;10.20;;;;;;;13.10;100.00;101097.84;5018767;28;20037;-85
2022/10/11 02:05:46;;;;;;;13.50;10.15;;;;;;;13.04;100.00;101094.03;5001323;28;20355;-85
2022/10/11 02:08:17;;;;;;;13.63;10.95;;;;;;;13.03;100.00;101096.78;5004222;28;20127;-85
2022/10/11 02:10:49;;;;;;;15.55;11.50;;;;;;;12.99;100.00;101095.44;5025875;28;20044;-84
2022/10/11 02:13:24;;;;;;;17.23;10.95;;;;;;;13.02;100.00;101092.53;5024584;28;20071;-85
2022/10/11 02:15:52;;;;;;;11.95;10.13;;;;;;;13.02;100.00;101090.72;5023169;28;20500;-86
2022/10/11 02:18:23;;;;;;;16.70;11.13;;;;;;;13.02;100.00;101095.13;5010424;28;20450;-84
2022/10/11 02:20:50;;;;;;;14.45;10.57;;;;;;;13.01;100.00;101093.50;5040311;28;20029;-85
2022/10/11 02:23:22;;;;;;;14.55;11.80;;;;;;;12.97;100.00;101103.41;5023678;28;20029;-85
2022/10/11 02:25:48;;;;;;;16.77;10.98;;;;;;;12.96;100.00;101096.53;5027958;28;20037;-84
2022/10/11 02:28:18;;;;;;;16.02;10.77;;;;;;;13.00;100.00;101097.91;5023378;28;20032;-85
2022/10/11 02:30:46;;;;;;;19.45;12.05;;;;;;;12.99;100.00;101098.03;5040151;28;20025;-85
2022/10/11 02:33:14;;;;;;;17.95;11.13;;;;;;;12.98;100.00;101099.00;5022466;28;20033;-84
2022/10/11 02:35:45;;;;;;;16.38;11.20;;;;;;;13.00;100.00;101099.69;5035395;28;20056;-84
2022/10/11 02:38:23;;;;;;;16.13;10.80;;;;;;;13.02;100.00;101100.38;5004959;28;20191;-83
2022/10/11 02:41:03;;;;;;;16.58;10.70;;;;;;;13.06;100.00;101096.50;5028302;28;20477;-84
2022/10/11 02:43:35;;;;;;;12.20;10.45;;;;;;;13.04;100.00;101093.19;5036864;28;20056;-84
2022/10/11 02:46:03;;;;;;;17.30;10.52;;;;;;;13.05;100.00;101100.09;5026949;28;20036;-85
2022/10/11 02:48:31;;;;;;;15.65;10.65;;;;;;;13.03;100.00;101100.22;5024959;28;20120;-85
2022/10/11 02:50:56;;;;;;;13.35;9.95;;;;;;;13.02;100.00;101095.13;5023081;28;20441;-85
2022/10/11 02:53:25;;;;;;;13.75;10.52;;;;;;;13.00;100.00;101097.06;5026600;28;20106;-84
2022/10/11 02:55:52;;;;;;;13.13;10.23;;;;;;;13.00;100.00;101097.06;5021843;28;20052;-84
2022/10/11 02:58:18;;;;;;;19.98;10.90;;;;;;;12.98;100.00;101097.22;5018487;28;20028;-85
2022/10/11 03:00:43;;;;;;;12.45;9.55;;;;;;;12.98;100.00;101101.63;5035742;28;20131;-83
2022/10/11 03:03:09;;;;;;;15.07;10.38;;;;;;;12.98;100.00;101099.84;5019279;28;20037;-85
2022/10/11 03:05:39;;;;;;;15.73;10.65;;;;;;;12.93;100.00;101096.81;5024587;28;20132;-84
2022/10/11 03:08:10;;;;;;;16.63;10.70;;;;;;;12.89;100.00;101095.47;5023847;28;20044;-85
2022/10/11 03:10:36;;;;;;;15.68;10.70;;;;;;;12.84;100.00;101092.44;5023862;28;20488;-85
2022/10/11 03:13:02;;;;;;;15.60;10.77;;;;;;;12.80;100.00;101088.47;5023882;28;20114;-84
2022/10/11 03:15:27;;;;;;;18.90;11.05;;;;;;;12.78;100.00;101093.84;5008462;28;20108;-85
2022/10/11 03:17:54;;;;;;;14.57;11.82;;;;;;;12.76;100.00;101095.78;5022294;28;20136;-86
2022/10/11 03:20:19;;;;;;;16.63;11.13;;;;;;;12.75;100.00;101083.69;5022357;28;20093;-85
2022/10/11 03:22:45;;;;;;;15.63;10.88;;;;;;;12.75;100.00;101090.72;5006030;28;20025;-85
2022/10/11 03:25:10;;;;;;;14.68;10.45;;;;;;;12.79;100.00;101092.88;5025203;28;20190;-85
2022/10/11 03:27:35;;;;;;;15.32;10.75;;;;;;;12.85;100.00;101096.72;5009440;28;20500;-86
2022/10/11 03:30:01;;;;;;;16.95;10.45;;;;;;;12.85;100.00;101104.56;5034442;28;20037;-85
2022/10/11 03:32:27;;;;;;;11.80;9.38;;;;;;;12.87;100.00;101108.69;5022463;28;20057;-85
2022/10/11 03:34:53;;;;;;;17.00;9.82;;;;;;;12.92;100.00;101101.22;5008775;28;20173;-85
2022/10/11 03:37:18;;;;;;;11.07;8.73;;;;;;;12.99;100.00;101105.88;5034976;28;20048;-85
2022/10/11 03:39:44;;;;;;;11.57;9.48;;;;;;;13.01;100.00;101109.19;5022111;28;20444;-87
2022/10/11 03:42:10;;;;;;;11.73;9.00;;;;;;;13.13;100.00;101102.78;5023529;28;20484;-85
2022/10/11 03:44:37;;;;;;;12.07;8.77;;;;;;;13.13;100.00;101102.78;5025089;28;20552;-85
2022/10/11 03:47:03;;;;;;;13.50;9.50;;;;;;;13.18;100.00;101116.31;5023786;28;20116;-85
2022/10/11 03:49:28;;;;;;;12.45;7.97;;;;;;;13.18;100.00;101109.28;5023086;28;20079;-85
2022/10/11 03:51:54;;;;;;;9.25;8.07;;;;;;;13.16;100.00;101110.38;5022205;28;20117;-86
2022/10/11 03:54:19;;;;;;;11.32;8.40;;;;;;;13.22;100.00;101112.44;5028002;28;20449;-86
2022/10/11 03:56:45;;;;;;;10.63;8.20;;;;;;;13.27;100.00;101111.00;5021289;28;20472;-86
2022/10/11 03:59:10;;;;;;;14.73;8.75;;;;;;;13.26;100.00;101108.53;5022115;28;20473;-85
2022/10/11 04:01:37;;;;;;;9.98;8.73;;;;;;;13.21;100.00;101116.84;5022434;28;20337;-86
2022/10/11 04:04:03;;;;;;;17.55;9.07;;;;;;;13.12;100.00;101106.38;5020527;28;20029;-85
2022/10/11 04:06:28;;;;;;;14.07;9.63;;;;;;;12.99;100.00;101116.34;5032431;28;20036;-85
2022/10/11 04:08:53;;;;;;;15.60;9.43;;;;;;;12.88;100.00;101118.19;5023397;28;20068;-85
2022/10/11 04:11:19;;;;;;;12.60;9.65;;;;;;;12.82;100.00;101110.06;5020582;28;20087;-85
2022/10/11 04:13:44;;;;;;;13.30;9.73;;;;;;;12.84;100.00;101114.19;5014010;28;20044;-84
2022/10/11 04:16:10;;;;;;;9.80;8.15;;;;;;;12.98;100.00;101106.84;5023755;28;20033;-83
2022/10/11 04:18:35;;;;;;;12.57;8.88;;;;;;;13.06;100.00;101105.16;5021645;28;20065;-84
2022/10/11 04:21:01;;;;;;;10.80;8.35;;;;;;;13.11;100.00;101109.97;5002809;28;20025;-83
2022/10/11 04:23:26;;;;;;;11.90;8.73;;;;;;;13.14;100.00;101117.53;5017766;28;20174;-84
2022/10/11 04:25:52;;;;;;;12.73;9.93;;;;;;;13.13;100.00;101119.31;4999307;28;20061;-84
2022/10/11 04:28:17;;;;;;;12.23;8.88;;;;;;;13.10;100.00;101114.38;5025699;28;20159;-83
2022/10/11 04:30:43;;;;;;;16.77;9.85;;;;;;;13.05;100.00;101115.78;5003164;28;20037;-84
2022/10/11 04:33:10;;;;;;;13.85;9.70;;;;;;;12.94;100.00;101120.22;5022071;28;20446;-86
2022/10/11 04:35:36;;;;;;;13.70;9.25;;;;;;;12.90;100.00;101113.63;5031370;28;20033;-84
2022/10/11 04:38:02;;;;;;;14.63;10.13;;;;;;;12.88;100.00;101105.09;5024774;28;20040;-83
2022/10/11 04:40:27;;;;;;;17.40;10.30;;;;;;;12.87;100.00;101103.44;5018080;28;20464;-84
2022/10/11 04:42:52;;;;;;;14.77;10.00;;;;;;;12.88;100.00;101104.28;5003395;28;20517;-85
2022/10/11 04:45:19;;;;;;;12.32;9.45;;;;;;;12.92;100.00;101108.25;5023187;28;20057;-84
2022/10/11 04:47:45;;;;;;;15.95;10.18;;;;;;;12.93;100.00;101108.09;5026673;28;20080;-84
2022/10/11 04:50:10;;;;;;;15.80;9.48;;;;;;;12.94;100.00;101114.16;5018064;28;20385;-84
2022/10/11 04:52:36;;;;;;;12.27;10.45;;;;;;;12.89;100.00;101109.34;5004607;28;20397;-84
2022/10/11 04:55:01;;;;;;;13.18;10.15;;;;;;;12.89;100.00;101105.91;5019443;28;20180;-84
2022/10/11 04:57:27;;;;;;;15.80;10.95;;;;;;;12.89;100.00;101105.91;5022232;28;20194;-84
2022/10/11 04:59:52;;;;;;;13.02;10.07;;;;;;;12.89;100.00;101111.16;5022657;28;20052;-84
2022/10/11 05:02:17;;;;;;;12.90;9.65;;;;;;;12.85;100.00;101099.34;5020260;28;20482;-85
2022/10/11 05:04:43;;;;;;;14.90;9.48;;;;;;;12.88;100.00;101109.50;5020876;28;20037;-84
2022/10/11 05:07:08;;;;;;;12.57;9.00;;;;;;;12.89;100.00;101104.13;5022469;28;20152;-85
2022/10/11 05:09:34;;;;;;;12.35;9.65;;;;;;;12.92;100.00;101116.91;5024078;28;20037;-83
2022/10/11 05:11:59;;;;;;;10.95;9.48;;;;;;;12.94;100.00;101109.75;5021569;28;20401;-84
2022/10/11 05:14:25;;;;;;;13.13;9.32;;;;;;;12.97;100.00;101113.88;5024188;28;20033;-84
2022/10/11 05:16:50;;;;;;;11.68;9.27;;;;;;;12.95;100.00;101111.41;5024366;28;20070;-84
2022/10/11 05:19:16;;;;;;;10.77;8.23;;;;;;;13.00;100.00;101118.00;5023968;28;20026;-85
2022/10/11 05:21:41;;;;;;;12.63;8.98;;;;;;;12.99;100.00;101117.19;5003328;28;20033;-86
2022/10/11 05:24:07;;;;;;;15.02;9.65;;;;;;;12.97;100.00;101121.72;5021752;28;20450;-85
2022/10/11 05:26:32;;;;;;;14.25;8.85;;;;;;;12.96;100.00;101123.50;5020881;28;20069;-85
2022/10/11 05:28:59;;;;;;;13.00;9.52;;;;;;;12.99;100.00;101126.81;5027471;28;20065;-85
2022/10/11 05:31:24;;;;;;;11.98;9.63;;;;;;;13.01;100.00;101120.47;5007718;28;20035;-84
2022/10/11 05:33:50;;;;;;;11.32;9.48;;;;;;;12.98;100.00;101119.94;5006368;28;20037;-85
2022/10/11 05:36:15;;;;;;;12.77;9.88;;;;;;;12.95;100.00;101129.72;5024647;28;20029;-84
2022/10/11 05:38:41;;;;;;;16.27;9.10;;;;;;;12.90;100.00;101133.72;5027387;28;20033;-85
2022/10/11 05:41:10;;;;;;;11.88;8.95;;;;;;;12.88;100.00;101136.47;5026717;28;20036;-85
2022/10/11 05:43:35;;;;;;;14.48;8.93;;;;;;;12.88;100.00;101135.66;5022124;28;20456;-85
2022/10/11 05:46:01;;;;;;;14.05;10.48;;;;;;;12.90;100.00;101138.94;5025040;28;20079;-85
2022/10/11 05:48:27;;;;;;;13.27;9.82;;;;;;;12.92;100.00;101137.03;5025764;28;20199;-85
2022/10/11 05:50:58;;;;;;;13.20;9.15;;;;;;;12.95;100.00;101134.13;5007831;28;20071;-85
2022/10/11 05:53:23;;;;;;;12.60;9.43;;;;;;;12.96;100.00;101135.78;5026598;28;20044;-83
2022/10/11 05:55:49;;;;;;;14.43;9.98;;;;;;;12.96;100.00;101146.22;5029932;28;20388;-85
2022/10/11 05:58:17;;;;;;;12.10;9.30;;;;;;;12.96;100.00;101141.81;5022115;28;20033;-85
2022/10/11 06:00:42;;;;;;;12.52;9.68;;;;;;;12.99;100.00;101147.75;5035902;28;20044;-85
2022/10/11 06:03:10;;;;;;;11.55;8.75;;;;;;;13.02;100.00;101137.81;5027869;28;20241;-85
2022/10/11 06:05:36;;;;;;;13.65;9.02;;;;;;;13.08;100.00;101152.13;5027931;28;20085;-85
2022/10/11 06:08:03;;;;;;;10.25;8.23;;;;;;;13.13;100.00;101147.28;5007579;28;20030;-85
2022/10/11 06:10:28;;;;;;;14.23;9.10;;;;;;;13.17;100.00;101151.28;5026221;28;20030;-84
2022/10/11 06:12:54;;;;;;;11.90;9.05;;;;;;;13.18;100.00;101153.75;5027718;28;20038;-85
2022/10/11 06:15:19;;;;;;;12.75;8.68;;;;;;;13.19;100.00;101157.19;5025735;28;20124;-84
2022/10/11 06:17:45;;;;;;;10.40;8.75;;;;;;;13.20;100.00;101159.66;5025529;28;20107;-85
2022/10/11 06:20:11;;;;;;;17.13;9.45;;;;;;;13.18;100.00;101163.41;5019080;28;20060;-86
2022/10/11 06:22:37;;;;;;;9.95;8.07;;;;;;;13.21;100.00;101163.13;5028721;28;20053;-85
2022/10/11 06:25:03;;;;;;;13.90;8.50;;;;;;;13.24;100.00;101170.66;5024434;28;20037;-86
2022/10/11 06:27:29;;;;;;;15.52;9.00;;;;;;;13.22;100.00;101172.63;5019975;28;20238;-84
2022/10/11 06:29:55;;;;;;;12.55;8.90;;;;;;;13.23;100.00;101182.91;5006007;28;20516;-84
2022/10/11 06:32:20;;;;;;;12.40;8.77;;;;;;;13.24;100.00;101183.72;5025066;28;20087;-84
2022/10/11 06:34:46;;;;;;;15.23;8.80;;;;;;;13.19;100.00;101185.97;5026532;28;20037;-84
2022/10/11 06:37:11;;;;;;;14.25;8.52;;;;;;;13.19;100.00;101186.81;5004845;28;20060;-84
2022/10/11 06:39:37;;;;;;;11.25;8.00;;;;;;;13.26;100.00;101187.03;5008613;28;20034;-84
2022/10/11 06:42:02;;;;;;;17.92;9.05;;;;;;;13.30;100.00;101193.63;5025922;28;20049;-84
2022/10/11 06:44:28;;;;;;;15.43;8.15;;;;;;;13.33;100.00;101198.56;5023923;28;20061;-85
2022/10/11 06:46:53;;;;;;;10.57;8.55;;;;;;;13.36;100.00;101198.28;5020535;28;20033;-84
2022/10/11 06:49:19;;;;;;;10.00;7.38;;;;;;;13.39;100.00;101198.00;5021815;28;20466;-86
2022/10/11 06:51:44;;;;;;;11.40;8.15;;;;;;;13.40;100.00;101199.66;5024291;28;20033;-85
2022/10/11 06:54:10;;;;;;;10.25;8.02;;;;;;;13.40;100.00;101204.88;5015825;28;20459;-84
2022/10/11 06:56:35;;;;;;;9.48;7.10;;;;;;;13.41;100.00;101198.69;5020153;28;20029;-86
2022/10/11 06:59:02;;;;;;;11.18;7.53;;;;;;;13.44;100.00;101211.47;5021417;28;20029;-85
2022/10/11 07:01:27;;;;;;;10.20;7.45;;;;;;;13.44;100.00;101208.03;5023747;28;20028;-84
2022/10/11 07:03:54;;;;;;;14.27;8.32;;;;;;;13.43;100.00;101209.81;5012086;28;20029;-83
2022/10/11 07:06:24;;;;;;;11.48;7.35;;;;;;;13.39;100.00;101210.25;5031150;28;20457;-84
2022/10/11 07:08:50;;;;;;;12.95;7.07;;;;;;;13.39;100.00;101218.94;5023495;28;20076;-84
2022/10/11 07:11:19;;;;;;;10.50;7.28;;;;;;;13.41;100.00;101213.56;5004835;28;23022;-86
2022/10/11 07:14:06;;;;;;;7.35;6.63;;;;;;;13.44;100.00;101216.72;5023235;28;20029;-84
2022/10/11 07:16:34;;;;;;;10.98;7.72;;;;;;;13.51;100.00;101219.56;5024112;28;20033;-82
2022/10/11 07:19:01;;;;;;;13.05;8.02;;;;;;;13.58;100.00;101218.84;5026866;28;20151;-82
2022/10/11 07:21:28;;;;;;;8.75;7.40;;;;;;;13.69;100.00;101225.69;5024441;28;20033;-81
2022/10/11 07:23:53;;;;;;;7.57;6.75;;;;;;;13.83;100.00;101222.56;5026503;28;20047;-80
2022/10/11 07:26:19;;;;;;;8.50;7.10;;;;;;;13.98;100.00;101233.38;5024282;28;20489;-79
2022/10/11 07:28:45;;;;;;;13.15;8.13;;;;;;;14.07;100.00;101231.66;5023393;28;20085;-80
2022/10/11 07:31:16;;;;;;;10.25;7.10;;;;;;;14.21;99.97;101231.94;5024699;28;20025;-80
2022/10/11 07:33:42;;;;;;;14.32;7.70;;;;;;;14.36;99.15;101226.19;5023728;28;20195;-80
2022/10/11 07:36:08;;;;;;;8.02;6.95;;;;;;;14.41;99.23;101229.19;5024146;28;20037;-81
2022/10/11 07:38:33;;;;;;;10.98;7.88;;;;;;;14.49;98.36;101229.28;5036059;28;20028;-80
2022/10/11 07:41:04;;;;;;;15.23;7.63;;;;;;;14.58;98.09;101231.81;5025337;28;20040;-81
2022/10/11 07:43:29;;;;;;;9.00;6.40;;;;;;;14.73;97.43;101231.25;5020586;28;20050;-81
2022/10/11 07:45:55;;;;;;;11.80;7.30;;;;;;;14.82;97.54;101243.47;5023439;28;20029;-81
2022/10/11 07:48:21;;;;;;;13.15;8.13;;;;;;;14.88;97.35;101227.94;5023992;28;20025;-80
2022/10/11 07:50:47;;;;;;;12.23;7.20;;;;;;;14.96;96.50;101235.03;5024625;28;20379;-80
2022/10/11 07:53:13;;;;;;;10.27;6.47;;;;;;;14.99;96.83;101236.53;5031740;28;20033;-80
2022/10/11 07:55:41;;;;;;;9.63;6.40;;;;;;;15.05;96.49;101242.00;5034659;28;20034;-80
2022/10/11 07:58:11;;;;;;;12.27;6.40;;;;;;;15.27;95.03;101244.06;5019669;28;20033;-81
2022/10/11 08:00:36;;;;;;;9.32;6.30;;;;;;;15.38;94.28;101248.22;5008269;28;20028;-80
2022/10/11 08:03:05;;;;;;;7.68;6.15;;;;;;;15.42;94.72;101239.06;5033431;28;20120;-81
2022/10/11 08:05:32;;;;;;;11.20;6.45;;;;;;;15.50;94.55;101236.47;5022393;28;20081;-85
2022/10/11 08:07:58;;;;;;;11.27;6.70;;;;;;;15.59;94.59;101240.00;5021464;28;20060;-84
2022/10/11 08:10:25;;;;;;;9.25;6.53;;;;;;;15.63;93.87;101241.28;5018449;28;20823;-85
2022/10/11 08:12:50;;;;;;;9.68;7.20;;;;;;;15.72;93.40;101245.59;5000100;28;20033;-84
2022/10/11 08:15:16;;;;;;;10.25;7.00;;;;;;;15.82;92.93;101242.84;5002591;28;20030;-87
2022/10/11 08:17:42;;;;;;;11.15;6.93;;;;;;;15.90;93.01;101243.69;5025820;28;20033;-85
2022/10/11 08:20:08;;;;;;;11.13;7.47;;;;;;;16.05;92.62;101241.28;5022439;28;20090;-84
2022/10/11 08:22:33;;;;;;;11.55;6.85;;;;;;;16.15;91.51;101241.09;5030439;28;20028;-84
2022/10/11 08:24:59;;;;;;;8.02;6.90;;;;;;;16.36;91.22;101238.03;5026376;28;20091;-84
2022/10/11 08:27:24;;;;;;;8.60;6.75;;;;;;;16.31;91.22;101240.31;5010790;28;20051;-85
2022/10/11 08:29:50;;;;;;;10.60;6.75;;;;;;;16.26;91.13;101239.00;5029287;28;20052;-84
2022/10/11 08:32:18;;;;;;;12.57;6.20;;;;;;;16.32;90.27;101236.69;5023898;28;20040;-84
2022/10/11 08:34:44;;;;;;;9.45;6.25;;;;;;;16.43;90.25;101233.75;5004905;28;20040;-84
2022/10/11 08:37:09;;;;;;;10.82;6.68;;;;;;;16.53;89.42;101229.97;5030090;28;20137;-83
2022/10/11 08:39:34;;;;;;;10.18;6.75;;;;;;;16.63;88.51;101234.22;5026358;28;20119;-83
2022/10/11 08:42:15;;;;;;;9.30;6.38;;;;;;;16.63;88.19;101237.69;5026561;28;20053;-83
2022/10/11 08:44:56;;;;;;;7.43;5.80;;;;;;;16.77;87.78;101247.56;5025403;28;20488;-86
2022/10/11 08:47:27;;;;;;;7.20;6.32;;;;;;;16.85;87.54;101250.22;5022493;28;20432;-85
2022/10/11 08:49:53;;;;;;;8.00;6.60;;;;;;;16.83;88.11;101246.91;5022486;28;20104;-85
2022/10/11 08:52:23;;;;;;;9.93;6.43;;;;;;;16.88;86.83;101244.63;5020903;28;20444;-85
2022/10/11 08:54:51;;;;;;;11.00;6.35;;;;;;;16.87;87.79;101240.34;5025360;28;20108;-86
2022/10/11 08:57:24;;;;;;;9.75;5.88;;;;;;;16.87;87.41;101235.06;5020327;28;20398;-86
2022/10/11 08:59:58;;;;;;;9.75;6.70;;;;;;;16.79;88.37;101242.97;5026888;28;20037;-86
2022/10/11 09:02:42;;;;;;;9.20;6.65;;;;;;;16.80;88.06;101244.63;5023275;28;20029;-85
2022/10/11 09:05:14;;;;;;;8.80;5.50;;;;;;;16.95;87.59;101234.25;5021828;28;20045;-86
2022/10/11 09:08:01;;;;;;;7.55;5.53;;;;;;;17.00;85.17;101229.28;5000925;28;20400;-85
2022/10/11 09:11:04;;;;;;;7.72;6.03;;;;;;;17.12;84.20;101235.81;5006878;28;20049;-86
2022/10/11 09:13:54;;;;;;;9.23;6.07;;;;;;;17.22;83.93;101230.38;5025343;28;20052;-86
2022/10/11 09:16:52;;;;;;;10.00;5.32;;;;;;;17.11;85.30;101222.84;5011097;28;20495;-86
2022/10/11 09:19:36;;;;;;;10.88;5.68;;;;;;;17.03;86.83;101231.56;5025637;28;20112;-85
2022/10/11 09:22:10;;;;;;;8.85;6.60;;;;;;;17.23;85.64;101232.03;5024093;28;20068;-86
2022/10/11 09:24:46;;;;;;;9.50;5.68;;;;;;;17.18;85.92;101232.53;5024557;28;20075;-86
2022/10/11 09:27:20;;;;;;;7.53;5.35;;;;;;;17.04;87.04;101232.38;5023631;28;20033;-86
2022/10/11 09:30:10;;;;;;;7.63;4.55;;;;;;;16.99;86.51;101234.72;5023852;28;20139;-86
2022/10/11 09:32:40;;;;;;;9.98;5.45;;;;;;;17.08;87.30;101228.44;5028497;28;20037;-85
2022/10/11 09:35:17;;;;;;;9.25;5.80;;;;;;;17.33;85.52;101222.13;5022232;28;20072;-84
2022/10/11 09:37:59;;;;;;;17.48;6.15;;;;;;;17.38;85.85;101227.69;5029361;28;20083;-83
2022/10/11 09:41:04;;;;;;;7.38;5.00;;;;;;;17.44;83.65;101229.66;5024943;28;20033;-84
2022/10/11 09:43:30;;;;;;;7.68;4.82;;;;;;;17.44;84.38;101227.03;5022156;28;20112;-83
2022/10/11 09:45:56;;;;;;;6.05;4.63;;;;;;;17.79;81.92;101232.81;5027111;28;20025;-83
2022/10/11 09:48:37;;;;;;;10.00;4.65;;;;;;;17.88;81.38;101226.50;5029908;28;20025;-84
2022/10/11 09:51:14;;;;;;;5.72;3.72;;;;;;;17.99;79.35;101214.72;5029662;28;20033;-82
2022/10/11 09:54:00;;;;;;;9.63;5.03;;;;;;;18.36;76.43;101219.25;5019508;28;20030;-86
2022/10/11 09:56:28;;;;;;;10.57;4.60;;;;;;;18.38;78.03;101220.72;5029012;28;20528;-84
2022/10/11 09:59:28;;;;;;;5.05;4.50;;;;;;;18.36;76.78;101214.78;5012733;28;20041;-86
2022/10/11 10:02:18;;;;;;;6.50;4.32;;;;;;;18.54;76.09;101217.09;5032883;28;20143;-83
2022/10/11 10:04:54;;;;;;;7.15;4.68;;;;;;;18.46;78.95;101214.53;5030155;28;20051;-85
2022/10/11 10:07:20;;;;;;;8.23;4.35;;;;;;;18.29;81.23;101218.31;5029307;28;20030;-86
2022/10/11 10:09:46;;;;;;;7.65;4.40;;;;;;;18.32;80.17;101210.88;5029634;28;20130;-85
2022/10/11 10:12:17;;;;;;;7.30;4.78;;;;;;;18.56;79.31;101215.09;5028180;28;20160;-85
2022/10/11 10:14:52;;;;;;;6.35;4.80;;;;;;;18.94;77.30;101212.47;5010038;28;20145;-84
2022/10/11 10:17:18;;;;;;;11.15;4.38;;;;;;;18.94;77.23;101217.75;5011089;28;20045;-84
2022/10/11 10:19:51;;;;;;;10.20;4.53;;;;;;;18.96;77.33;101218.38;5028048;28;20034;-84
2022/10/11 10:22:21;;;;;;;6.07;4.93;;;;;;;18.88;78.17;101209.56;5028717;28;20033;-85
2022/10/11 10:24:49;;;;;;;5.78;4.05;;;;;;;18.95;78.10;101212.28;5011344;28;20033;-85
2022/10/11 10:27:17;;;;;;;5.75;4.93;;;;;;;18.83;78.80;101211.94;5020445;28;20032;-85
2022/10/11 10:30:00;;;;;;;8.88;4.55;;;;;;;18.96;75.91;101207.81;5035471;28;20460;-85
2022/10/11 10:32:31;;;;;;;6.55;4.22;;;;;;;19.02;76.62;101213.19;5054215;28;20030;-86
2022/10/11 10:35:32;;;;;;;5.22;3.90;;;;;;;19.34;73.89;101209.38;5029515;28;20157;-85
2022/10/11 10:38:21;;;;;;;7.82;5.00;;;;;;;19.48;74.47;101211.16;5025598;28;20060;-85
2022/10/11 10:40:49;;;;;;;7.90;4.43;;;;;;;19.48;75.12;101205.88;5022225;28;20122;-85
2022/10/11 10:43:24;;;;;;;6.10;4.38;;;;;;;19.35;76.00;101195.16;5025693;28;20048;-86
2022/10/11 10:46:08;;;;;;;8.93;4.25;;;;;;;19.46;75.13;101201.78;5012044;28;20025;-86
2022/10/11 10:49:13;;;;;;;5.05;4.07;;;;;;;19.69;73.05;101199.03;5030247;28;20033;-85
2022/10/11 10:51:39;;;;;;;5.35;4.03;;;;;;;19.67;74.68;101195.78;5017495;28;20041;-85
2022/10/11 10:54:20;;;;;;;6.53;4.00;;;;;;;19.61;74.36;101197.31;5026298;28;20045;-85
2022/10/11 10:56:54;;;;;;;6.30;4.22;;;;;;;19.58;76.06;101197.69;5022080;28;20029;-86
2022/10/11 10:59:38;;;;;;;6.07;3.85;;;;;;;19.52;77.13;101201.91;5005602;28;20029;-84
2022/10/11 11:02:18;;;;;;;5.05;3.97;;;;;;;19.49;78.02;101199.59;5005862;28;20041;-86
2022/10/11 11:05:04;;;;;;;5.47;4.55;;;;;;;19.39;79.81;101195.59;5021987;28;20026;-85
2022/10/11 11:07:36;;;;;;;5.15;3.90;;;;;;;19.30;80.84;101186.97;5024439;28;20496;-86
2022/10/11 11:10:04;;;;;;;9.98;4.05;;;;;;;19.24;80.30;101190.34;5009841;28;20064;-86
2022/10/11 11:12:51;;;;;;;6.57;4.18;;;;;;;19.24;79.17;101187.72;4999589;28;20519;-86
2022/10/11 11:15:39;;;;;;;7.40;4.65;;;;;;;19.30;80.04;101189.63;5020494;28;20041;-86
2022/10/11 11:18:08;;;;;;;9.60;3.70;;;;;;;19.39;81.62;101185.84;5025040;28;20034;-85
2022/10/11 11:21:00;;;;;;;6.10;4.10;;;;;;;19.53;81.83;101187.69;5034690;28;20028;-86
2022/10/11 11:23:30;;;;;;;9.30;4.32;;;;;;;19.58;82.28;101183.66;5023322;28;20032;-86
2022/10/11 11:26:08;;;;;;;6.40;3.75;;;;;;;19.53;81.29;101177.09;5026322;28;20044;-86
2022/10/11 11:29:01;;;;;;;10.07;3.78;;;;;;;19.48;80.54;101174.16;5021654;28;20065;-86